Monday, January 22, 2018, 1:51 PM GMT
Back to Local

CYMX, Montreal / Mirabel

Location: , , Canada Lat: 45.683
Local Time: 1:51 PM GMT (13:51 GMT) Lon: -74.033
Time Zone: GMT Elev: 269 ft

Show me the last for .
Show Decoded

2018-01-22 13:00 METAR CYMX 221300Z 05007G19KT 010V090 35SM SCT026 OVC065 M08/M16 A3033 RMK
                 SC4SC4 SLP278 =
2018-01-22 12:00 METAR CYMX 221200Z 06007KT 360V120 25SM BKN025 OVC065 M08/M16 A3032 RMK SC6SC2
                 SLP273 =
2018-01-22 11:00 METAR CYMX 221100Z 06007G15KT 320V090 25SM SCT024 BKN063 BKN120 M09/M15 A3029
                 RMK SC3SC3AC1 SLP266 =
2018-01-22 10:00 METAR CYMX 221000Z 06007G15KT 010V080 25SM FEW022 BKN065 BKN120 M09/M16 A3028
                 RMK SC2SC4AC1 SLP260 =
2018-01-22 09:31 METAR CYMX 220931Z 05005KT 020V080 25SM FEW045 SCT065 BKN120 M09/M16 A3027 RMK
                 SC1SC3AC2 SLP257 =
2018-01-22 09:00 METAR CYMX 220900Z 06006KT 350V090 15SM -SN FEW045 BKN065 OVC120 M09/M14 A3027
                 RMK SC2SC4AC2 SLP257 =
2018-01-22 08:00 METAR CYMX 220800Z 06007KT 020V100 15SM -SN OVC047 M08/M14 A3027 RMK SC8 SLP256
                 =
2018-01-22 07:00 METAR CYMX 220700Z 05006KT 020V080 15SM -SN OVC047 M08/M11 A3026 RMK SC8 SLP254
                 =
2018-01-22 06:00 METAR CYMX 220600Z 05008KT 330V090 4SM -SN OVC042 M07/M10 A3025 RMK SC8 SLP250 =
2018-01-22 05:00 METAR CYMX 220500Z 05006KT 010V100 10SM -SN OVC045 M07/M10 A3024 RMK SC8 SLP247
                 =
2018-01-22 04:00 METAR CYMX 220400Z 05006KT 020V090 15SM -SN BKN035 OVC058 M06/M09 A3024 RMK
                 SC5SC3 SLP246 =
2018-01-22 03:00 METAR CYMX 220300Z 06004KT 020V090 25SM -SN OVC031 M05/M09 A3023 RMK SC8 SLP243
                 =
2018-01-22 02:00 METAR CYMX 220200Z 06004KT 25SM -SN BKN033 OVC048 M05/M09 A3021 RMK SC6SC2
                 SLP238 =
2018-01-22 01:00 METAR CYMX 220100Z 06005KT 020V090 25SM -SN OVC035 M04/M09 A3021 RMK SC8 SLP235
                 =
2018-01-22 00:48 METAR CYMX 220048Z 05005KT 020V100 25SM SCT035 M04/M08 A3020 RMK SC3 SLP234 =
2018-01-22 00:00 METAR CYMX 220000Z 06004KT 010V090 25SM OVC029 M03/M08 A3019 RMK SC8 SLP230 =
2018-01-21 23:00 METAR CYMX 212300Z 05003KT 020V080 25SM OVC026 M03/M08 A3018 RMK SC8 SLP228 =
2018-01-21 22:00 METAR CYMX 212200Z 07003KT 25SM OVC027 M02/M08 A3017 RMK SC8 SLP224 =
2018-01-21 21:00 METAR CYMX 212100Z 09004KT 45SM BKN026 OVC058 M02/M08 A3016 RMK SC6SC2 SLP218 =
2018-01-21 20:00 METAR CYMX 212000Z 09004KT 45SM OVC028 M02/M09 A3015 RMK SC8 SLP215 =
2018-01-21 19:00 METAR CYMX 211900Z 06003KT 020V080 45SM OVC028 M02/M10 A3013 RMK SC8 SLP210 =
2018-01-21 18:00 METAR CYMX 211800Z 07003KT 350V090 45SM BKN027 OVC055 M02/M09 A3013 RMK SC6SC2
                 SLP208 =
2018-01-21 17:00 METAR CYMX 211700Z 05003KT 45SM BKN030 OVC055 M02/M10 A3014 RMK SC6SC2 SLP212 =
2018-01-21 16:00 METAR CYMX 211600Z 08003KT 45SM BKN031 OVC055 M02/M10 A3015 RMK SC6SC2 SLP215 =
2018-01-21 15:50 METAR CYMX 211550Z 09003KT 45SM BKN031 OVC055 M02/M09 A3014 RMK SC7SC1 SLP214 =
2018-01-21 15:25 METAR CYMX 211525Z 10004KT 45SM -SN OVC030 M03/M10 A3015 RMK SC8 SLP216 =
2018-01-21 15:00 METAR CYMX 211500Z 09003KT 030V100 45SM BKN030 OVC055 M03/M08 A3015 RMK SC7SC1
                 SLP217 =
2018-01-21 14:00 METAR CYMX 211400Z 35002KT 45SM BKN031 BKN055 M02/M09 A3014 RMK SC6SC1 SLP212 =

Support USWX by starting your Amazon purchase here.